Terminal Aerodrome Forecast
Issued by NWS

Home | Current Version | Previous Version | Text Only | Print | Product List | Glossary On
Versions: 1 2 3 4 5 6 7 8 9 10 11 12 13 14 15 16 17 18 19 20 21 22 23 24 25
000
FTUS43 KLSX 261736
TAFUIN
TAF
KUIN 261736Z 2618/2718 26010KT P6SM OVC008
     FM262200 26005KT P6SM BKN015
     FM270500 VRB03KT P6SM BKN025
     FM271000 06005KT P6SM VCSH OVC015
     FM271200 06006KT 3SM SHRA OVC008=

USA.gov is the U.S. government's official web portal to all federal, state and local government web resources and services.